Impacts METAR Board
IDs:

KPNS - Pensacola Intl, FL, US

Updated at: 0600 UTC 24 Jan 2019
Potential Impact None Slight Moderate High
Time 23/18Z 23/19Z 23/20Z 23/21Z 23/22Z 23/23Z 24/00Z 24/01Z 24/02Z 24/03Z 24/04Z 24/05Z 24/06Z
Temp68 68 68 68 69 69 61 58 57 57 56 57 56
Dewpt63 64 65 65 66 66 58 56 55 55 54 55 54
Altim29.92 29.87 29.83 29.83 29.79 29.76 29.81 29.82 29.85 29.83 29.82 29.86 29.85
VIS3 2 2 4 2.5 2.5 4 6 10 10 10 10 10
CIG10 15 12 7 7 6 7 60 35 80 90 25 8
CoverOVCOVCOVCOVCOVCOVCOVCOVCOVCOVCOVCOVCOVC
FltCatMVFRIFRIFRIFRIFRIFRIFRVFRVFRVFRVFRMVFRIFR
WXHZ+RA BR-RA BR-RA BR-RA BRRA BRVCTS +RA BRVCTS +RA BR-RA-RA-RA-RA--
WDir1601601502101601703503503600290270290
WSpd22 21 23 16 17 20 10 9 6 0 6 8 7
WGst31 28 30 25 27 27 18 -- -- -- -- -- --
Raw hourly METARs
KPNS 231753Z 16022G31KT 3SM HZ BKN010 OVC023 20/17 A2992 RMK AO2 PK WND 15031/1703 RAB1654E17 SLP134 P0002 60002 T02000172 10217 20189 58027
KPNS 231859Z 16021G28KT 2SM +RA BR OVC015 20/18 A2987 RMK AO2 PK WND 15027/1857 P0000 T02000178
KPNS 231953Z 15023G30KT 2SM -RA BR SCT007 OVC012 20/18 A2983 RMK AO2 PK WND 15030/1953 SLP104 P0005 T02000183 $
KPNS 232055Z 21016G25KT 4SM -RA BR BKN007 OVC010 20/18 A2983 RMK AO2 WSHFT 2040 CIG 005V010 P0000 T02000183 $
KPNS 232153Z 16017G27KT 2 1/2SM R17/2000VP6000FT -RA BR BKN007 OVC012 21/19 A2979 RMK AO2 PK WND 17028/2141 WSHFT 2040 SLP088 P0016 T02060189 $
KPNS 232253Z 17020G27KT 2 1/2SM RA BR BKN006 BKN020 OVC044 21/19 A2976 RMK AO2 PK WND 18030/2232 LTG DSNT W AND NW RAE11B36 CIG 005V010 SLP080 P0000 T02060189 $
KPNS 240004Z 35010G18KT 4SM VCTS +RA BR BKN007 BKN018 OVC035 16/14 A2981 RMK AO2 WSHFT 2350 LTG DSNT ALQDS P0008 T01610144 $
KPNS 240100Z 35009KT 6SM VCTS +RA BR FEW005 BKN060 OVC100 14/13 A2982 RMK AO2 LTG DSNT E-S P0003 T01440133 $
KPNS 240159Z 36006KT 10SM -RA OVC035 14/13 A2985 RMK AO2 P0001 T01390128 $
KPNS 240253Z 00000KT 10SM -RA FEW060 BKN080 OVC095 14/13 A2983 RMK AO2 RAE08B31 SLP103 P0001 60032 T01390128 50002 $
KPNS 240353Z 29006KT 10SM -RA FEW032 SCT055 OVC090 13/12 A2982 RMK AO2 PRESRR SLP100 P0002 T01330122 $
KPNS 240501Z AUTO 27008KT 10SM -RA SCT006 BKN025 OVC110 14/13 A2986 RMK AO2 P0000 T01390128 $
KPNS 240553Z AUTO 29007KT 10SM OVC008 13/12 A2985 RMK AO2 RAE34 CIG 005V012 SLP110 P0000 60035 T01330122 10178 20133 402170133 52007 $



Page loaded:  06:48 UTC  |   10:48 PM Pacific  |   11:48 PM Mountain  |   12:48 AM Central  |   01:48 AM Eastern

 

ADVISORIES

FORECASTS

FORECASTS

OBSERVATIONS

USER TOOLS

ABOUT US